createdAt,value
2018-11-04T00:00:20.252Z,100866.34
2018-11-04T00:02:50.154Z,101023.36
2018-11-04T00:05:19.817Z,101021.91
2018-11-04T00:07:50.446Z,101011.45
2018-11-04T00:10:20.052Z,101008.12
2018-11-04T00:12:49.616Z,101007.82
2018-11-04T00:15:19.207Z,101007.82
2018-11-04T00:17:48.722Z,101003.13
2018-11-04T00:20:18.307Z,101002.80
2018-11-04T00:22:47.894Z,101001.67
2018-11-04T00:25:17.518Z,100997.17
2018-11-04T00:27:47.022Z,100995.19
2018-11-04T00:30:16.782Z,100996.13
2018-11-04T00:32:46.366Z,100990.48
2018-11-04T00:35:15.954Z,100984.95
2018-11-04T00:37:45.506Z,100977.66
2018-11-04T00:40:15.050Z,100976.51
2018-11-04T00:42:44.592Z,100974.52
2018-11-04T00:45:14.196Z,100967.94
2018-11-04T00:47:43.887Z,100963.67
2018-11-04T00:50:14.870Z,100967.85
2018-11-04T00:52:44.689Z,100804.50
2018-11-04T00:55:14.579Z,100959.19
2018-11-04T00:57:44.103Z,100958.98
2018-11-04T01:00:16.832Z,100952.08
2018-11-04T01:02:47.454Z,100948.54
2018-11-04T01:05:17.391Z,100948.44
2018-11-04T01:07:46.981Z,100950.52
2018-11-04T01:10:16.585Z,100951.58
2018-11-04T01:12:46.305Z,100946.66
2018-11-04T01:15:16.175Z,100946.16
2018-11-04T01:17:45.720Z,100945.53
2018-11-04T01:20:16.450Z,100947.91
2018-11-04T01:22:46.534Z,100947.91
2018-11-04T01:25:16.077Z,100942.19
2018-11-04T01:27:45.666Z,100939.15
2018-11-04T01:30:15.888Z,100940.70
2018-11-04T01:32:45.588Z,100931.73
2018-11-04T01:35:15.127Z,100934.16
2018-11-04T01:37:44.681Z,100933.62
2018-11-04T01:40:14.261Z,100932.17
2018-11-04T01:42:43.782Z,100932.57
2018-11-04T01:45:13.329Z,100924.23
2018-11-04T01:47:42.862Z,100928.50
2018-11-04T01:50:14.084Z,100923.19
2018-11-04T01:52:43.683Z,100920.91
2018-11-04T01:55:13.476Z,100923.19
2018-11-04T01:57:43.032Z,100917.86
2018-11-04T02:00:16.258Z,100923.72
2018-11-04T02:02:46.370Z,100917.86
2018-11-04T02:05:16.210Z,100914.72
2018-11-04T02:07:45.695Z,100911.91
2018-11-04T02:10:15.704Z,100912.53
2018-11-04T02:12:45.234Z,100905.86
2018-11-04T02:15:14.875Z,100901.36
2018-11-04T02:17:44.449Z,100902.28
2018-11-04T02:20:14.386Z,100906.44
2018-11-04T02:22:44.045Z,100904.55
2018-11-04T02:25:14.360Z,100905.80
2018-11-04T02:27:44.307Z,100905.06
2018-11-04T02:30:17.506Z,100898.39
2018-11-04T02:32:47.490Z,100909.12
2018-11-04T02:35:17.187Z,100900.89
2018-11-04T02:37:46.795Z,100902.64
2018-11-04T02:40:16.375Z,100905.87
2018-11-04T02:42:45.875Z,100902.63
2018-11-04T02:45:15.496Z,100899.80
2018-11-04T02:47:45.060Z,100905.11
2018-11-04T02:50:14.619Z,100907.69
2018-11-04T02:52:44.137Z,100900.81
2018-11-04T02:55:13.719Z,100903.71
2018-11-04T02:57:43.239Z,100901.73
2018-11-04T03:00:14.425Z,100904.85
2018-11-04T03:02:44.028Z,100902.87
2018-11-04T03:05:13.540Z,100909.98
2018-11-04T03:07:43.603Z,100905.33
2018-11-04T03:10:14.226Z,100912.28
2018-11-04T03:12:43.782Z,100909.97
2018-11-04T03:15:13.300Z,100910.19
2018-11-04T03:17:42.856Z,100909.75
2018-11-04T03:20:12.409Z,100902.02
2018-11-04T03:22:41.971Z,100907.13
2018-11-04T03:25:11.575Z,100900.63
2018-11-04T03:27:41.103Z,100903.39
2018-11-04T03:30:10.903Z,100908.91
2018-11-04T03:32:40.614Z,100910.34
2018-11-04T03:35:10.151Z,100916.06
2018-11-04T03:37:39.682Z,100910.42
2018-11-04T03:40:10.713Z,100922.11
2018-11-04T03:42:40.561Z,100918.43
2018-11-04T03:45:10.664Z,100920.31
2018-11-04T03:47:40.436Z,100916.14
2018-11-04T03:50:11.468Z,100916.85
2018-11-04T03:52:41.097Z,100916.22
2018-11-04T03:55:10.662Z,100917.45
2018-11-04T03:57:40.214Z,100923.17
2018-11-04T04:00:11.950Z,100911.82
2018-11-04T04:02:42.343Z,100922.56
2018-11-04T04:05:12.268Z,100917.68
2018-11-04T04:07:41.847Z,100918.73
2018-11-04T04:10:11.445Z,100918.73
2018-11-04T04:12:41.001Z,100913.51
2018-11-04T04:15:11.550Z,100916.92
2018-11-04T04:17:41.339Z,100916.81
2018-11-04T04:20:10.917Z,100922.34
2018-11-04T04:22:40.510Z,100914.03
2018-11-04T04:25:10.223Z,100915.39
2018-11-04T04:27:39.770Z,100921.52
2018-11-04T04:30:10.874Z,100911.78
2018-11-04T04:32:40.423Z,100915.69
2018-11-04T04:35:10.801Z,100918.58
2018-11-04T04:37:40.875Z,100921.09
2018-11-04T04:40:10.703Z,100920.57
2018-11-04T04:42:40.191Z,100917.46
2018-11-04T04:45:09.765Z,100923.39
2018-11-04T04:47:39.331Z,100920.88
2018-11-04T04:50:08.894Z,100929.21
2018-11-04T04:52:38.438Z,100932.94
2018-11-04T04:55:08.027Z,100937.52
2018-11-04T04:57:37.567Z,100938.03
2018-11-04T05:00:07.822Z,100938.56
2018-11-04T05:02:37.402Z,100936.05
2018-11-04T05:05:07.213Z,100937.40
2018-11-04T05:07:36.707Z,100940.10
2018-11-04T05:10:06.859Z,100943.82
2018-11-04T05:12:36.623Z,100939.46
2018-11-04T05:15:07.448Z,100940.29
2018-11-04T05:17:37.117Z,100944.87
2018-11-04T05:20:06.836Z,100951.11
2018-11-04T05:22:36.350Z,100941.64
2018-11-04T05:25:06.421Z,100945.70
2018-11-04T05:27:35.957Z,100942.69
2018-11-04T05:30:07.512Z,100949.95
2018-11-04T05:32:37.005Z,100945.39
2018-11-04T05:35:07.035Z,100950.92
2018-11-04T05:37:37.004Z,100947.50
2018-11-04T05:40:07.299Z,100946.08
2018-11-04T05:42:36.795Z,100957.77
2018-11-04T05:45:07.240Z,100957.31
2018-11-04T05:47:36.820Z,100958.83
2018-11-04T05:50:06.916Z,100963.03
2018-11-04T05:52:36.838Z,100842.48
2018-11-04T05:55:07.299Z,100962.01
2018-11-04T05:57:36.856Z,100959.14
2018-11-04T06:00:07.687Z,100956.60
2018-11-04T06:02:37.190Z,100962.18
2018-11-04T06:05:08.058Z,100966.70
2018-11-04T06:07:37.570Z,100962.05
2018-11-04T06:10:07.570Z,100962.61
2018-11-04T06:12:37.606Z,100964.85
2018-11-04T06:15:07.962Z,100963.84
2018-11-04T06:17:37.547Z,100967.20
2018-11-04T06:20:08.308Z,100968.16
2018-11-04T06:22:37.862Z,100966.06
2018-11-04T06:25:07.560Z,100962.94
2018-11-04T06:27:37.091Z,100964.69
2018-11-04T06:30:08.486Z,100966.47
2018-11-04T06:32:38.078Z,100966.55
2018-11-04T06:35:08.103Z,100973.09
2018-11-04T06:37:37.906Z,100974.59
2018-11-04T06:40:08.258Z,100971.84
2018-11-04T06:42:37.843Z,100982.35
2018-11-04T06:45:08.351Z,100963.53
2018-11-04T06:47:38.038Z,100978.28
2018-11-04T06:50:09.644Z,100973.74
2018-11-04T06:52:39.167Z,100980.38
2018-11-04T06:55:09.327Z,100981.84
2018-11-04T06:57:39.072Z,100977.53
2018-11-04T07:00:10.376Z,100975.38
2018-11-04T07:02:40.192Z,100977.75
2018-11-04T07:05:09.748Z,100976.44
2018-11-04T07:07:39.328Z,100822.70
2018-11-04T07:10:09.536Z,100975.11
2018-11-04T07:12:39.186Z,100974.22
2018-11-04T07:15:08.744Z,100968.70
2018-11-04T07:17:38.471Z,100973.80
2018-11-04T07:20:08.826Z,100964.95
2018-11-04T07:22:38.630Z,100966.31
2018-11-04T07:25:08.462Z,100969.96
2018-11-04T07:27:38.019Z,100967.92
2018-11-04T07:30:09.547Z,100965.27
2018-11-04T07:32:39.094Z,100967.56
2018-11-04T07:35:09.150Z,100969.52
2018-11-04T07:37:38.824Z,100964.16
2018-11-04T07:40:09.174Z,100967.27
2018-11-04T07:42:39.190Z,100969.84
2018-11-04T07:45:09.472Z,100963.17
2018-11-04T07:47:39.023Z,100960.91
2018-11-04T07:50:10.815Z,100960.75
2018-11-04T07:52:40.362Z,100964.22
2018-11-04T07:55:10.252Z,100968.32
2018-11-04T07:57:41.320Z,100965.31
2018-11-04T08:00:13.369Z,100961.64
2018-11-04T08:02:43.265Z,100962.63
2018-11-04T08:05:13.127Z,100961.65
2018-11-04T08:07:42.698Z,100959.37
2018-11-04T08:10:13.465Z,100960.85
2018-11-04T08:12:43.046Z,100956.16
2018-11-04T08:15:12.587Z,100951.30
2018-11-04T08:17:42.157Z,100952.50
2018-11-04T08:20:11.728Z,100953.23
2018-11-04T08:22:41.553Z,100950.17
2018-11-04T08:25:11.079Z,100953.02
2018-11-04T08:27:40.649Z,100952.02
2018-11-04T08:30:10.336Z,100948.14
2018-11-04T08:32:39.870Z,100950.53
2018-11-04T08:35:09.376Z,100943.05
2018-11-04T08:37:38.937Z,100938.61
2018-11-04T08:40:08.727Z,100942.91
2018-11-04T08:42:38.145Z,100937.86
2018-11-04T08:45:08.063Z,100939.14
2018-11-04T08:47:37.623Z,100938.78
2018-11-04T08:50:08.566Z,100939.61
2018-11-04T08:52:38.161Z,100936.23
2018-11-04T08:55:08.747Z,100944.34
2018-11-04T08:57:38.348Z,100940.89
2018-11-04T09:00:10.091Z,100936.88
2018-11-04T09:02:39.604Z,100938.63
2018-11-04T09:05:09.561Z,100935.53
2018-11-04T09:07:39.175Z,100935.94
2018-11-04T09:10:11.824Z,100935.52
2018-11-04T09:12:41.459Z,100929.33
2018-11-04T09:15:11.503Z,100925.27
2018-11-04T09:17:41.115Z,100914.51
2018-11-04T09:20:12.616Z,100915.97
2018-11-04T09:22:43.069Z,100915.19
2018-11-04T09:25:13.164Z,100911.48
2018-11-04T09:27:42.704Z,100910.66
2018-11-04T09:30:14.574Z,100912.92
2018-11-04T09:32:44.132Z,100908.91
2018-11-04T09:35:13.825Z,100908.36
2018-11-04T09:37:43.327Z,100899.58
2018-11-04T09:40:13.673Z,100898.05
2018-11-04T09:42:43.194Z,100890.79
2018-11-04T09:45:12.781Z,100884.58
2018-11-04T09:47:42.339Z,100880.00
2018-11-04T09:50:12.514Z,100878.23
2018-11-04T09:52:42.018Z,100870.92
2018-11-04T09:55:12.397Z,100870.68
2018-11-04T09:57:41.942Z,100867.74
2018-11-04T10:00:12.662Z,100862.27
2018-11-04T10:02:42.218Z,100859.81
2018-11-04T10:05:12.187Z,100852.19
2018-11-04T10:07:41.773Z,100848.62
2018-11-04T10:10:13.750Z,100847.09
2018-11-04T10:12:44.196Z,100845.72
2018-11-04T10:15:13.772Z,100838.20
2018-11-04T10:17:43.338Z,100837.20
2018-11-04T10:20:13.752Z,100832.58
2018-11-04T10:22:42.963Z,100829.36
2018-11-04T10:25:13.351Z,100826.08
2018-11-04T10:27:43.121Z,100823.68
2018-11-04T10:30:15.114Z,100696.64
2018-11-04T10:32:44.651Z,100807.02
2018-11-04T10:35:14.241Z,100805.38
2018-11-04T10:37:44.105Z,100802.39
2018-11-04T10:40:14.517Z,100793.88
2018-11-04T10:42:44.096Z,100792.05
2018-11-04T10:45:13.608Z,100789.09
2018-11-04T10:47:43.166Z,100786.41
2018-11-04T10:50:13.404Z,100787.88
2018-11-04T10:52:42.976Z,100782.13
2018-11-04T10:55:12.515Z,100778.14
2018-11-04T10:57:42.105Z,100776.61
2018-11-04T11:00:16.862Z,100771.71
2018-11-04T11:02:46.692Z,100764.38
2018-11-04T11:05:16.471Z,100776.73
2018-11-04T11:07:46.236Z,100765.80
2018-11-04T11:10:15.738Z,100757.91
2018-11-04T11:12:45.283Z,100761.47
2018-11-04T11:15:14.792Z,100753.25
2018-11-04T11:17:44.416Z,100749.72
2018-11-04T11:20:13.928Z,100742.95
2018-11-04T11:22:43.807Z,100748.43
2018-11-04T11:25:13.190Z,100739.39
2018-11-04T11:27:42.734Z,100739.16
2018-11-04T11:30:12.401Z,100732.06
2018-11-04T11:32:41.862Z,100733.76
2018-11-04T11:35:11.363Z,100729.95
2018-11-04T11:37:40.944Z,100721.78
2018-11-04T11:40:10.842Z,100725.92
2018-11-04T11:42:40.484Z,100720.77
2018-11-04T11:45:10.541Z,100729.00
2018-11-04T11:47:40.114Z,100724.11
2018-11-04T11:50:09.804Z,100720.84
2018-11-04T11:52:39.453Z,100728.55
2018-11-04T11:55:09.154Z,100714.05
2018-11-04T11:57:38.719Z,100709.13
2018-11-04T12:00:09.703Z,100709.70
2018-11-04T12:02:39.953Z,100713.01
2018-11-04T12:05:09.929Z,100703.98
2018-11-04T12:07:39.591Z,100703.72
2018-11-04T12:10:11.339Z,100699.08
2018-11-04T12:12:40.911Z,100697.73
2018-11-04T12:15:11.886Z,100689.53
2018-11-04T12:17:41.460Z,100686.80
2018-11-04T12:20:11.935Z,100689.30
2018-11-04T12:22:41.578Z,100688.49
2018-11-04T12:25:12.318Z,100690.68
2018-11-04T12:27:42.026Z,100683.02
2018-11-04T12:30:13.496Z,100681.98
2018-11-04T12:32:43.042Z,100669.94
2018-11-04T12:35:13.638Z,100673.77
2018-11-04T12:37:43.384Z,100670.27
2018-11-04T12:40:13.686Z,100673.84
2018-11-04T12:42:43.167Z,100664.54
2018-11-04T12:45:13.362Z,100665.11
2018-11-04T12:47:43.043Z,100668.41
2018-11-04T12:50:13.317Z,100665.13
2018-11-04T12:52:42.971Z,100668.42
2018-11-04T12:55:12.574Z,100658.28
2018-11-04T12:57:42.119Z,100655.29
2018-11-04T13:00:14.423Z,100655.03
2018-11-04T13:02:44.652Z,100655.85
2018-11-04T13:05:14.270Z,100654.48
2018-11-04T13:07:43.810Z,100651.20
2018-11-04T13:10:14.303Z,100653.12
2018-11-04T13:12:43.810Z,100652.31
2018-11-04T13:15:14.483Z,100587.30
2018-11-04T13:17:44.377Z,100646.56
2018-11-04T13:20:13.898Z,100647.64
2018-11-04T13:22:43.446Z,100640.83
2018-11-04T13:25:12.977Z,100644.66
2018-11-04T13:27:42.543Z,100642.76
2018-11-04T13:30:13.259Z,100638.64
2018-11-04T13:32:42.842Z,100629.30
2018-11-04T13:35:12.352Z,100630.11
2018-11-04T13:37:41.892Z,100634.22
2018-11-04T13:40:12.283Z,100633.41
2018-11-04T13:42:42.186Z,100625.98
2018-11-04T13:45:12.192Z,100632.55
2018-11-04T13:47:41.728Z,100625.69
2018-11-04T13:50:12.787Z,100633.35
2018-11-04T13:52:42.684Z,100629.77
2018-11-04T13:55:12.268Z,100623.72
2018-11-04T13:57:41.848Z,100622.05
2018-11-04T14:00:15.365Z,100626.41
2018-11-04T14:02:46.525Z,100620.91
2018-11-04T14:05:16.066Z,100622.50
2018-11-04T14:07:45.643Z,100617.53
2018-11-04T14:10:16.175Z,100619.13
2018-11-04T14:12:46.324Z,100618.00
2018-11-04T14:15:16.006Z,100615.50
2018-11-04T14:17:45.667Z,100617.92
2018-11-04T14:20:15.211Z,100609.38
2018-11-04T14:22:44.770Z,100609.59
2018-11-04T14:25:14.287Z,100614.20
2018-11-04T14:27:43.871Z,100607.55
2018-11-04T14:30:15.398Z,100607.23
2018-11-04T14:32:45.100Z,100616.20
2018-11-04T14:35:14.656Z,100608.45
2018-11-04T14:37:44.155Z,100607.29
2018-11-04T14:40:14.928Z,100610.26
2018-11-04T14:42:45.171Z,100611.81
2018-11-04T14:45:14.815Z,100610.59
2018-11-04T14:47:44.341Z,100614.36
2018-11-04T14:50:15.233Z,100606.90
2018-11-04T14:52:44.872Z,100606.80
2018-11-04T14:55:14.416Z,100606.42
2018-11-04T14:57:43.992Z,100610.70
2018-11-04T15:00:15.566Z,100613.32
2018-11-04T15:02:45.139Z,100611.57
2018-11-04T15:05:14.657Z,100614.95
2018-11-04T15:07:44.220Z,100614.80
2018-11-04T15:10:14.786Z,100614.16
2018-11-04T15:12:44.603Z,100619.23
2018-11-04T15:15:15.696Z,100618.56
2018-11-04T15:17:45.256Z,100624.72
2018-11-04T15:20:14.783Z,100626.77
2018-11-04T15:22:51.669Z,100626.66
2018-11-04T15:25:22.179Z,100626.28
2018-11-04T15:27:51.772Z,100624.23
2018-11-04T15:30:21.307Z,100635.87
2018-11-04T15:32:50.910Z,100635.21
2018-11-04T15:35:20.404Z,100634.83
2018-11-04T15:37:49.961Z,100639.59
2018-11-04T15:40:19.570Z,100639.67
2018-11-04T15:42:49.088Z,100643.61
2018-11-04T15:45:18.646Z,100641.81
2018-11-04T15:47:48.152Z,100640.83
2018-11-04T15:50:18.856Z,100635.75
2018-11-04T15:52:49.020Z,100641.13
2018-11-04T15:55:18.558Z,100635.73
2018-11-04T15:57:48.113Z,100646.01
2018-11-04T16:00:17.614Z,100652.14
2018-11-04T16:02:47.230Z,100656.88
2018-11-04T16:05:16.743Z,100660.56
2018-11-04T16:07:46.284Z,100660.47
2018-11-04T16:10:15.847Z,100664.68
2018-11-04T16:12:45.399Z,100664.04
2018-11-04T16:15:15.571Z,100664.44
2018-11-04T16:17:45.542Z,100665.67
2018-11-04T16:20:15.961Z,100672.38
2018-11-04T16:22:46.195Z,100667.33
2018-11-04T16:25:15.745Z,100668.24
2018-11-04T16:27:45.303Z,100667.82
2018-11-04T16:30:15.576Z,100667.66
2018-11-04T16:32:45.164Z,100667.77
2018-11-04T16:35:15.393Z,100666.27
2018-11-04T16:37:45.688Z,100662.60
2018-11-04T16:40:15.203Z,100664.89
2018-11-04T16:42:44.763Z,100665.51
2018-11-04T16:45:15.533Z,100668.71
2018-11-04T16:47:45.143Z,100672.96
2018-11-04T16:50:15.237Z,100666.60
2018-11-04T16:52:45.264Z,100672.53
2018-11-04T16:55:15.074Z,100671.02
2018-11-04T16:57:44.948Z,100669.81
2018-11-04T17:00:14.459Z,100668.61
2018-11-04T17:02:44.020Z,100671.20
2018-11-04T17:05:14.005Z,100679.85
2018-11-04T17:07:43.839Z,100676.15
2018-11-04T17:10:13.357Z,100677.73
2018-11-04T17:12:42.951Z,100676.84
2018-11-04T17:15:13.835Z,100684.41
2018-11-04T17:17:43.635Z,100679.95
2018-11-04T17:20:16.253Z,100686.68
2018-11-04T17:22:46.111Z,100684.41
2018-11-04T17:25:15.636Z,100550.95
2018-11-04T17:27:45.290Z,100691.83
2018-11-04T17:30:16.638Z,100690.91
2018-11-04T17:32:46.450Z,100687.58
2018-11-04T17:35:16.628Z,100687.73
2018-11-04T17:37:46.530Z,100684.34
2018-11-04T17:40:16.756Z,100688.03
2018-11-04T17:42:46.432Z,100694.73
2018-11-04T17:45:16.920Z,100691.66
2018-11-04T17:47:46.976Z,100690.45
2018-11-04T17:50:17.935Z,100688.31
2018-11-04T17:52:47.559Z,100692.86
2018-11-04T17:55:17.253Z,100691.94
2018-11-04T17:57:46.980Z,100695.66
2018-11-04T18:00:17.337Z,100693.91
2018-11-04T18:02:47.039Z,100702.05
2018-11-04T18:05:16.597Z,100702.48
2018-11-04T18:07:46.183Z,100701.88
2018-11-04T18:10:16.347Z,100704.02
2018-11-04T18:12:45.924Z,100703.63
2018-11-04T18:15:15.671Z,100702.48
2018-11-04T18:17:45.382Z,100702.41
2018-11-04T18:20:14.914Z,100699.30
2018-11-04T18:22:44.460Z,100700.05
2018-11-04T18:25:14.101Z,100708.20
2018-11-04T18:27:43.602Z,100711.73
2018-11-04T18:30:14.755Z,100718.24
2018-11-04T18:32:44.788Z,100718.27
2018-11-04T18:35:14.411Z,100723.84
2018-11-04T18:37:44.031Z,100726.48
2018-11-04T18:40:15.935Z,100726.48
2018-11-04T18:42:45.993Z,100730.41
2018-11-04T18:45:16.576Z,100730.34
2018-11-04T18:47:46.188Z,100730.13
2018-11-04T18:50:16.424Z,100733.73
2018-11-04T18:52:46.160Z,100741.56
2018-11-04T18:55:15.635Z,100736.34
2018-11-04T18:57:45.404Z,100747.66
2018-11-04T19:00:17.212Z,100754.05
2018-11-04T19:02:47.452Z,100750.22
2018-11-04T19:05:17.087Z,100748.98
2018-11-04T19:07:46.778Z,100751.70
2018-11-04T19:10:17.671Z,100755.25
2018-11-04T19:12:47.347Z,100765.79
2018-11-04T19:15:16.917Z,100772.58
2018-11-04T19:17:46.480Z,100768.51
2018-11-04T19:20:16.392Z,100774.06
2018-11-04T19:22:45.966Z,100780.48
2018-11-04T19:25:16.180Z,100781.23
2018-11-04T19:27:45.788Z,100779.99
2018-11-04T19:30:16.498Z,100777.70
2018-11-04T19:32:46.422Z,100776.70
2018-11-04T19:35:16.936Z,100784.44
2018-11-04T19:37:46.513Z,100784.03
2018-11-04T19:40:16.691Z,100783.33
2018-11-04T19:42:46.305Z,100788.14
2018-11-04T19:45:15.871Z,100786.08
2018-11-04T19:47:45.429Z,100786.37
2018-11-04T19:50:15.020Z,100788.71
2018-11-04T19:52:44.522Z,100797.59
2018-11-04T19:55:14.303Z,100802.92
2018-11-04T19:57:43.786Z,100804.93
2018-11-04T20:00:13.883Z,100805.05
2018-11-04T20:02:43.409Z,100804.10
2018-11-04T20:05:13.525Z,100808.70
2018-11-04T20:07:43.240Z,100801.53
2018-11-04T20:10:15.423Z,100807.07
2018-11-04T20:12:50.086Z,100814.59
2018-11-04T20:15:19.612Z,100813.84
2018-11-04T20:17:49.669Z,100816.79
2018-11-04T20:20:23.620Z,100815.02
2018-11-04T20:22:53.272Z,100822.00
2018-11-04T20:25:27.799Z,100814.59
2018-11-04T20:27:57.365Z,100816.69
2018-11-04T20:30:26.930Z,100813.05
2018-11-04T20:33:01.593Z,100816.16
2018-11-04T20:35:31.188Z,100815.55
2018-11-04T20:38:00.721Z,100806.78
2018-11-04T20:40:35.238Z,100804.80
2018-11-04T20:43:04.781Z,100810.96
2018-11-04T20:45:34.355Z,100803.36
2018-11-04T20:48:08.944Z,100803.56
2018-11-04T20:50:43.598Z,100808.06
2018-11-04T20:53:13.157Z,100808.80
2018-11-04T20:55:47.632Z,100811.70
2018-11-04T20:58:17.447Z,100807.25
2018-11-04T21:00:46.814Z,100801.60
2018-11-04T21:03:16.302Z,100803.39
2018-11-04T21:05:45.885Z,100806.83
2018-11-04T21:08:15.447Z,100800.45
2018-11-04T21:10:45.031Z,100804.13
2018-11-04T21:13:14.521Z,100800.89
2018-11-04T21:15:44.110Z,100801.41
2018-11-04T21:18:13.605Z,100799.20
2018-11-04T21:20:43.193Z,100804.42
2018-11-04T21:23:12.699Z,100800.16
2018-11-04T21:25:42.460Z,100804.84
2018-11-04T21:28:11.928Z,100804.41
2018-11-04T21:30:41.467Z,100805.04
2018-11-04T21:33:11.047Z,100807.84
2018-11-04T21:35:40.569Z,100809.83
2018-11-04T21:38:10.143Z,100808.59
2018-11-04T21:40:39.719Z,100804.83
2018-11-04T21:43:09.349Z,100802.45
2018-11-04T21:45:38.823Z,100804.10
2018-11-04T21:48:08.363Z,100799.73
2018-11-04T21:50:37.870Z,100807.74
2018-11-04T21:53:07.488Z,100812.24
2018-11-04T21:55:37.321Z,100809.94
2018-11-04T21:58:11.150Z,100804.94
2018-11-04T22:00:40.802Z,100803.16
2018-11-04T22:03:10.598Z,100808.19
2018-11-04T22:05:40.061Z,100801.52
2018-11-04T22:08:09.625Z,100801.39
2018-11-04T22:10:39.257Z,100799.64
2018-11-04T22:13:08.750Z,100798.16
2018-11-04T22:15:38.281Z,100802.94
2018-11-04T22:18:07.912Z,100792.20
2018-11-04T22:20:37.424Z,100795.97
2018-11-04T22:23:07.041Z,100794.32
2018-11-04T22:25:36.624Z,100796.41
2018-11-04T22:28:06.210Z,100793.06
2018-11-04T22:30:35.700Z,100790.75
2018-11-04T22:33:05.257Z,100792.01
2018-11-04T22:35:34.835Z,100794.62
2018-11-04T22:38:04.427Z,100797.00
2018-11-04T22:40:33.927Z,100645.95
2018-11-04T22:43:03.492Z,100788.77
2018-11-04T22:45:32.985Z,100789.80
2018-11-04T22:48:02.529Z,100788.24
2018-11-04T22:50:32.050Z,100787.84
2018-11-04T22:53:01.653Z,100784.52
2018-11-04T22:55:31.146Z,100782.10
2018-11-04T22:58:06.458Z,100783.25
2018-11-04T23:00:41.091Z,100781.27
2018-11-04T23:03:11.125Z,100786.92
2018-11-04T23:05:40.683Z,100773.05
2018-11-04T23:08:10.719Z,100779.52
2018-11-04T23:10:40.289Z,100782.22
2018-11-04T23:13:09.788Z,100780.56
2018-11-04T23:15:39.325Z,100785.14
2018-11-04T23:18:08.891Z,100787.02
2018-11-04T23:20:38.419Z,100668.56
2018-11-04T23:23:07.951Z,100775.52
2018-11-04T23:25:37.471Z,100781.47
2018-11-04T23:28:07.026Z,100779.89
2018-11-04T23:30:36.563Z,100778.08
2018-11-04T23:33:06.139Z,100768.59
2018-11-04T23:35:35.707Z,100774.52
2018-11-04T23:38:05.289Z,100775.14
2018-11-04T23:40:34.796Z,100767.00
2018-11-04T23:43:04.358Z,100766.27
2018-11-04T23:45:33.890Z,100761.55
2018-11-04T23:48:03.444Z,100758.27
2018-11-04T23:50:32.934Z,100763.67
2018-11-04T23:53:02.454Z,100763.13
2018-11-04T23:55:31.974Z,100762.30
2018-11-04T23:58:01.519Z,100768.73
